sensor_id;sensor_type;location;lat;lon;timestamp;pressure;altitude;pressure_sealevel;temperature;humidity
18795;BME280;29610;49.022;12.114;2024-01-25T00:00:33;98677.28;;;9.67;100.00
18795;BME280;29610;49.022;12.114;2024-01-25T00:03:02;98673.34;;;9.54;100.00
18795;BME280;29610;49.022;12.114;2024-01-25T00:05:31;98675.72;;;9.61;100.00
18795;BME280;29610;49.022;12.114;2024-01-25T00:07:59;98673.22;;;9.64;100.00
18795;BME280;29610;49.022;12.114;2024-01-25T00:10:27;98669.63;;;9.69;100.00
18795;BME280;29610;49.022;12.114;2024-01-25T00:12:55;98672.69;;;9.62;100.00
18795;BME280;29610;49.022;12.114;2024-01-25T00:15:24;98677.84;;;9.64;100.00
18795;BME280;29610;49.022;12.114;2024-01-25T00:17:53;98674.09;;;9.60;100.00
18795;BME280;29610;49.022;12.114;2024-01-25T00:20:22;98678.28;;;9.52;100.00
18795;BME280;29610;49.022;12.114;2024-01-25T00:22:51;98665.16;;;9.59;100.00
18795;BME280;29610;49.022;12.114;2024-01-25T00:25:19;98667.50;;;9.66;100.00
18795;BME280;29610;49.022;12.114;2024-01-25T00:27:48;98663.72;;;9.67;100.00
18795;BME280;29610;49.022;12.114;2024-01-25T00:30:16;98661.66;;;9.77;100.00
18795;BME280;29610;49.022;12.114;2024-01-25T00:32:44;98657.53;;;9.61;100.00
18795;BME280;29610;49.022;12.114;2024-01-25T00:35:15;98655.75;;;9.52;100.00
18795;BME280;29610;49.022;12.114;2024-01-25T00:37:45;98660.69;;;9.68;100.00
18795;BME280;29610;49.022;12.114;2024-01-25T00:40:14;98661.25;;;9.65;100.00
18795;BME280;29610;49.022;12.114;2024-01-25T00:42:44;98659.13;;;9.62;100.00
18795;BME280;29610;49.022;12.114;2024-01-25T00:45:17;98656.81;;;9.74;100.00
18795;BME280;29610;49.022;12.114;2024-01-25T00:47:46;98662.38;;;9.64;100.00
18795;BME280;29610;49.022;12.114;2024-01-25T00:50:18;98660.13;;;9.71;100.00
18795;BME280;29610;49.022;12.114;2024-01-25T00:52:49;98656.09;;;9.45;100.00
18795;BME280;29610;49.022;12.114;2024-01-25T00:55:19;98661.41;;;9.55;100.00
18795;BME280;29610;49.022;12.114;2024-01-25T00:57:48;98667.38;;;9.57;100.00
18795;BME280;29610;49.022;12.114;2024-01-25T01:00:20;98661.50;;;9.69;100.00
18795;BME280;29610;49.022;12.114;2024-01-25T01:02:49;98656.00;;;9.55;100.00
18795;BME280;29610;49.022;12.114;2024-01-25T01:05:21;98646.44;;;9.58;100.00
18795;BME280;29610;49.022;12.114;2024-01-25T01:07:50;98652.09;;;9.61;100.00
18795;BME280;29610;49.022;12.114;2024-01-25T01:10:19;98641.53;;;9.60;100.00
18795;BME280;29610;49.022;12.114;2024-01-25T01:12:47;98641.22;;;9.43;100.00
18795;BME280;29610;49.022;12.114;2024-01-25T01:15:15;98648.50;;;9.47;100.00
18795;BME280;29610;49.022;12.114;2024-01-25T01:17:44;98643.47;;;9.36;100.00
18795;BME280;29610;49.022;12.114;2024-01-25T01:20:13;98643.19;;;9.37;100.00
18795;BME280;29610;49.022;12.114;2024-01-25T01:22:43;98640.81;;;9.31;100.00
18795;BME280;29610;49.022;12.114;2024-01-25T01:25:11;98639.53;;;9.47;100.00
18795;BME280;29610;49.022;12.114;2024-01-25T01:27:40;98637.63;;;9.47;100.00
18795;BME280;29610;49.022;12.114;2024-01-25T01:30:10;98635.34;;;9.36;100.00
18795;BME280;29610;49.022;12.114;2024-01-25T01:32:38;98634.16;;;9.42;100.00
18795;BME280;29610;49.022;12.114;2024-01-25T01:35:07;98635.94;;;9.51;100.00
18795;BME280;29610;49.022;12.114;2024-01-25T01:37:36;98642.59;;;9.40;100.00
18795;BME280;29610;49.022;12.114;2024-01-25T01:40:07;98636.66;;;9.38;100.00
18795;BME280;29610;49.022;12.114;2024-01-25T01:42:35;98622.88;;;9.35;100.00
18795;BME280;29610;49.022;12.114;2024-01-25T01:45:05;98626.38;;;9.35;100.00
18795;BME280;29610;49.022;12.114;2024-01-25T01:47:34;98617.22;;;9.31;100.00
18795;BME280;29610;49.022;12.114;2024-01-25T01:50:02;98609.81;;;9.37;100.00
18795;BME280;29610;49.022;12.114;2024-01-25T01:52:31;98609.97;;;9.45;100.00
18795;BME280;29610;49.022;12.114;2024-01-25T01:55:01;98608.78;;;9.33;100.00
18795;BME280;29610;49.022;12.114;2024-01-25T01:57:31;98621.66;;;9.46;100.00
18795;BME280;29610;49.022;12.114;2024-01-25T02:00:03;98611.88;;;9.45;100.00
18795;BME280;29610;49.022;12.114;2024-01-25T02:02:37;98617.22;;;9.31;100.00
18795;BME280;29610;49.022;12.114;2024-01-25T02:05:06;98624.09;;;9.24;100.00
18795;BME280;29610;49.022;12.114;2024-01-25T02:07:35;98617.81;;;9.47;100.00
18795;BME280;29610;49.022;12.114;2024-01-25T02:10:06;98616.22;;;9.46;100.00
18795;BME280;29610;49.022;12.114;2024-01-25T02:12:36;98620.97;;;9.35;100.00
18795;BME280;29610;49.022;12.114;2024-01-25T02:15:06;98625.97;;;9.47;100.00
18795;BME280;29610;49.022;12.114;2024-01-25T02:17:34;98614.94;;;9.38;100.00
18795;BME280;29610;49.022;12.114;2024-01-25T02:20:04;98617.81;;;9.28;100.00
18795;BME280;29610;49.022;12.114;2024-01-25T02:22:34;98618.78;;;9.37;100.00
18795;BME280;29610;49.022;12.114;2024-01-25T02:25:03;98619.59;;;9.38;100.00
18795;BME280;29610;49.022;12.114;2024-01-25T02:27:32;98625.06;;;9.33;100.00
18795;BME280;29610;49.022;12.114;2024-01-25T02:30:06;98623.88;;;9.20;100.00
18795;BME280;29610;49.022;12.114;2024-01-25T02:32:35;98625.47;;;9.21;100.00
18795;BME280;29610;49.022;12.114;2024-01-25T02:35:04;98623.19;;;9.33;100.00
18795;BME280;29610;49.022;12.114;2024-01-25T02:37:34;98615.53;;;9.35;100.00
18795;BME280;29610;49.022;12.114;2024-01-25T02:40:04;98625.41;;;9.26;100.00
18795;BME280;29610;49.022;12.114;2024-01-25T02:42:32;98616.63;;;9.34;100.00
18795;BME280;29610;49.022;12.114;2024-01-25T02:45:01;98634.31;;;9.32;100.00
18795;BME280;29610;49.022;12.114;2024-01-25T02:47:29;98627.19;;;9.36;100.00
18795;BME280;29610;49.022;12.114;2024-01-25T02:49:58;98634.16;;;9.42;100.00
18795;BME280;29610;49.022;12.114;2024-01-25T02:52:26;98635.63;;;9.34;100.00
18795;BME280;29610;49.022;12.114;2024-01-25T02:54:56;98621.31;;;9.29;100.00
18795;BME280;29610;49.022;12.114;2024-01-25T02:57:25;98633.44;;;9.36;100.00
18795;BME280;29610;49.022;12.114;2024-01-25T02:59:53;98632.91;;;9.34;100.00
18795;BME280;29610;49.022;12.114;2024-01-25T03:02:21;98633.03;;;9.24;100.00
18795;BME280;29610;49.022;12.114;2024-01-25T03:04:50;98635.75;;;9.24;100.00
18795;BME280;29610;49.022;12.114;2024-01-25T03:07:18;98627.47;;;9.16;100.00
18795;BME280;29610;49.022;12.114;2024-01-25T03:09:47;98632.88;;;9.16;100.00
18795;BME280;29610;49.022;12.114;2024-01-25T03:12:18;98621.44;;;9.19;100.00
18795;BME280;29610;49.022;12.114;2024-01-25T03:14:48;98617.28;;;9.26;100.00
18795;BME280;29610;49.022;12.114;2024-01-25T03:17:17;98629.03;;;9.40;100.00
18795;BME280;29610;49.022;12.114;2024-01-25T03:19:45;98622.59;;;9.36;100.00
18795;BME280;29610;49.022;12.114;2024-01-25T03:22:15;98620.47;;;9.33;100.00
18795;BME280;29610;49.022;12.114;2024-01-25T03:24:43;98630.38;;;9.19;100.00
18795;BME280;29610;49.022;12.114;2024-01-25T03:27:11;98626.38;;;9.35;100.00
18795;BME280;29610;49.022;12.114;2024-01-25T03:29:43;98627.56;;;9.29;100.00
18795;BME280;29610;49.022;12.114;2024-01-25T03:32:11;98630.38;;;9.19;100.00
18795;BME280;29610;49.022;12.114;2024-01-25T03:34:40;98628.78;;;9.18;100.00
18795;BME280;29610;49.022;12.114;2024-01-25T03:37:08;98639.78;;;9.03;100.00
18795;BME280;29610;49.022;12.114;2024-01-25T03:39:36;98640.31;;;9.05;100.00
18795;BME280;29610;49.022;12.114;2024-01-25T03:42:05;98633.28;;;9.04;100.00
18795;BME280;29610;49.022;12.114;2024-01-25T03:44:33;98639.22;;;9.06;100.00
18795;BME280;29610;49.022;12.114;2024-01-25T03:47:03;98640.44;;;8.95;100.00
18795;BME280;29610;49.022;12.114;2024-01-25T03:49:32;98640.25;;;9.10;100.00
18795;BME280;29610;49.022;12.114;2024-01-25T03:52:01;98644.72;;;9.01;100.00
18795;BME280;29610;49.022;12.114;2024-01-25T03:54:30;98646.91;;;8.99;100.00
18795;BME280;29610;49.022;12.114;2024-01-25T03:56:58;98645.78;;;8.76;100.00
18795;BME280;29610;49.022;12.114;2024-01-25T03:59:27;98652.75;;;8.82;100.00
18795;BME280;29610;49.022;12.114;2024-01-25T04:01:55;98650.75;;;8.93;100.00
18795;BME280;29610;49.022;12.114;2024-01-25T04:04:25;98653.88;;;9.05;100.00
18795;BME280;29610;49.022;12.114;2024-01-25T04:06:53;98652.03;;;9.01;100.00
18795;BME280;29610;49.022;12.114;2024-01-25T04:09:21;98647.53;;;8.91;100.00
18795;BME280;29610;49.022;12.114;2024-01-25T04:11:50;98659.56;;;9.04;100.00
18795;BME280;29610;49.022;12.114;2024-01-25T04:14:18;98645.69;;;9.10;100.00
18795;BME280;29610;49.022;12.114;2024-01-25T04:16:46;98647.72;;;9.00;100.00
18795;BME280;29610;49.022;12.114;2024-01-25T04:19:14;98645.69;;;8.86;100.00
18795;BME280;29610;49.022;12.114;2024-01-25T04:21:44;98641.84;;;8.87;100.00
18795;BME280;29610;49.022;12.114;2024-01-25T04:24:12;98644.00;;;8.90;100.00
18795;BME280;29610;49.022;12.114;2024-01-25T04:26:40;98652.63;;;8.69;100.00
18795;BME280;29610;49.022;12.114;2024-01-25T04:29:09;98653.03;;;8.81;100.00
18795;BME280;29610;49.022;12.114;2024-01-25T04:31:43;98653.63;;;8.78;100.00
18795;BME280;29610;49.022;12.114;2024-01-25T04:34:13;98649.19;;;8.87;100.00
18795;BME280;29610;49.022;12.114;2024-01-25T04:36:43;98648.44;;;8.81;100.00
18795;BME280;29610;49.022;12.114;2024-01-25T04:39:11;98646.81;;;8.80;100.00
18795;BME280;29610;49.022;12.114;2024-01-25T04:41:40;98652.66;;;8.93;100.00
18795;BME280;29610;49.022;12.114;2024-01-25T04:44:08;98658.50;;;8.76;100.00
18795;BME280;29610;49.022;12.114;2024-01-25T04:46:37;98658.50;;;8.76;100.00
18795;BME280;29610;49.022;12.114;2024-01-25T04:49:05;98657.19;;;8.73;100.00
18795;BME280;29610;49.022;12.114;2024-01-25T04:51:34;98652.34;;;8.70;100.00
18795;BME280;29610;49.022;12.114;2024-01-25T04:54:04;98655.63;;;8.67;100.00
18795;BME280;29610;49.022;12.114;2024-01-25T04:56:33;98664.69;;;8.53;100.00
18795;BME280;29610;49.022;12.114;2024-01-25T04:59:01;98658.56;;;8.71;100.00
18795;BME280;29610;49.022;12.114;2024-01-25T05:01:29;98657.28;;;8.63;100.00
18795;BME280;29610;49.022;12.114;2024-01-25T05:03:58;98663.78;;;8.62;100.00
18795;BME280;29610;49.022;12.114;2024-01-25T05:06:26;98670.94;;;8.53;100.00
18795;BME280;29610;49.022;12.114;2024-01-25T05:08:54;98680.63;;;8.59;100.00
18795;BME280;29610;49.022;12.114;2024-01-25T05:11:24;98682.06;;;8.52;100.00
18795;BME280;29610;49.022;12.114;2024-01-25T05:13:52;98670.81;;;8.63;100.00
18795;BME280;29610;49.022;12.114;2024-01-25T05:16:20;98676.81;;;8.60;100.00
18795;BME280;29610;49.022;12.114;2024-01-25T05:18:49;98676.97;;;8.74;100.00
18795;BME280;29610;49.022;12.114;2024-01-25T05:21:17;98674.34;;;8.64;100.00
18795;BME280;29610;49.022;12.114;2024-01-25T05:23:45;98680.34;;;8.61;100.00
18795;BME280;29610;49.022;12.114;2024-01-25T05:26:14;98682.16;;;8.70;100.00
18795;BME280;29610;49.022;12.114;2024-01-25T05:28:45;98676.84;;;8.55;100.00
18795;BME280;29610;49.022;12.114;2024-01-25T05:31:13;98672.03;;;8.47;100.00
18795;BME280;29610;49.022;12.114;2024-01-25T05:33:43;98669.91;;;8.44;100.00
18795;BME280;29610;49.022;12.114;2024-01-25T05:36:11;98687.84;;;8.40;100.00
18795;BME280;29610;49.022;12.114;2024-01-25T05:38:41;98696.34;;;8.19;100.00
18795;BME280;29610;49.022;12.114;2024-01-25T05:41:09;98690.16;;;8.13;100.00
18795;BME280;29610;49.022;12.114;2024-01-25T05:43:37;98702.56;;;8.19;100.00
18795;BME280;29610;49.022;12.114;2024-01-25T05:46:07;98687.19;;;8.15;100.00
18795;BME280;29610;49.022;12.114;2024-01-25T05:48:36;98690.94;;;8.24;100.00
18795;BME280;29610;49.022;12.114;2024-01-25T05:51:05;98681.78;;;8.10;100.00
18795;BME280;29610;49.022;12.114;2024-01-25T05:53:33;98696.19;;;8.05;100.00
18795;BME280;29610;49.022;12.114;2024-01-25T05:56:02;98696.19;;;8.05;100.00
18795;BME280;29610;49.022;12.114;2024-01-25T05:58:31;98695.72;;;7.88;100.00
18795;BME280;29610;49.022;12.114;2024-01-25T06:00:59;98710.03;;;7.94;100.00
18795;BME280;29610;49.022;12.114;2024-01-25T06:03:29;98704.13;;;7.87;100.00
18795;BME280;29610;49.022;12.114;2024-01-25T06:05:58;98710.31;;;7.97;100.00
18795;BME280;29610;49.022;12.114;2024-01-25T06:08:27;98703.78;;;7.98;100.00
18795;BME280;29610;49.022;12.114;2024-01-25T06:10:55;98713.56;;;7.99;100.00
18795;BME280;29610;49.022;12.114;2024-01-25T06:13:23;98725.25;;;7.90;100.00
18795;BME280;29610;49.022;12.114;2024-01-25T06:15:52;98737.69;;;7.86;100.00
18795;BME280;29610;49.022;12.114;2024-01-25T06:18:20;98731.72;;;7.89;100.00
18795;BME280;29610;49.022;12.114;2024-01-25T06:20:52;98728.16;;;7.98;100.00
18795;BME280;29610;49.022;12.114;2024-01-25T06:23:20;98730.56;;;8.00;100.00
18795;BME280;29610;49.022;12.114;2024-01-25T06:25:48;98731.75;;;7.79;100.00
18795;BME280;29610;49.022;12.114;2024-01-25T06:28:17;98730.88;;;7.93;100.00
18795;BME280;29610;49.022;12.114;2024-01-25T06:30:46;98734.66;;;7.97;100.00
18795;BME280;29610;49.022;12.114;2024-01-25T06:33:14;98736.28;;;7.93;100.00
18795;BME280;29610;49.022;12.114;2024-01-25T06:35:43;98727.44;;;7.83;100.00
18795;BME280;29610;49.022;12.114;2024-01-25T06:38:13;98728.56;;;7.77;100.00
18795;BME280;29610;49.022;12.114;2024-01-25T06:40:41;98727.97;;;7.85;100.00
18795;BME280;29610;49.022;12.114;2024-01-25T06:43:09;98718.31;;;7.69;100.00
18795;BME280;29610;49.022;12.114;2024-01-25T06:45:40;98735.88;;;7.66;100.00
18795;BME280;29610;49.022;12.114;2024-01-25T06:48:09;98742.34;;;7.75;100.00
18795;BME280;29610;49.022;12.114;2024-01-25T06:50:37;98741.00;;;7.68;100.00
18795;BME280;29610;49.022;12.114;2024-01-25T06:53:05;98754.06;;;7.61;100.00
18795;BME280;29610;49.022;12.114;2024-01-25T06:55:35;98741.56;;;7.65;100.00
18795;BME280;29610;49.022;12.114;2024-01-25T06:58:03;98747.47;;;7.82;100.00
18795;BME280;29610;49.022;12.114;2024-01-25T07:00:32;98743.16;;;7.76;100.00
18795;BME280;29610;49.022;12.114;2024-01-25T07:03:00;98741.25;;;7.76;100.00
18795;BME280;29610;49.022;12.114;2024-01-25T07:05:30;98751.22;;;7.86;100.00
18795;BME280;29610;49.022;12.114;2024-01-25T07:08:00;98749.94;;;7.73;100.00
18795;BME280;29610;49.022;12.114;2024-01-25T07:10:28;98742.09;;;7.72;100.00
18795;BME280;29610;49.022;12.114;2024-01-25T07:12:58;98744.53;;;7.73;100.00
18795;BME280;29610;49.022;12.114;2024-01-25T07:15:26;98744.56;;;7.63;100.00
18795;BME280;29610;49.022;12.114;2024-01-25T07:17:54;98750.81;;;7.59;100.00
18795;BME280;29610;49.022;12.114;2024-01-25T07:20:22;98755.59;;;7.77;100.00
18795;BME280;29610;49.022;12.114;2024-01-25T07:22:51;98765.91;;;7.70;100.00
18795;BME280;29610;49.022;12.114;2024-01-25T07:25:19;98775.06;;;7.79;100.00
18795;BME280;29610;49.022;12.114;2024-01-25T07:27:48;98773.91;;;7.95;100.00
18795;BME280;29610;49.022;12.114;2024-01-25T07:30:18;98782.31;;;7.88;100.00
18795;BME280;29610;49.022;12.114;2024-01-25T07:32:47;98776.09;;;7.98;100.00
18795;BME280;29610;49.022;12.114;2024-01-25T07:35:16;98784.16;;;8.03;100.00
18795;BME280;29610;49.022;12.114;2024-01-25T07:37:45;98792.34;;;7.93;100.00
18795;BME280;29610;49.022;12.114;2024-01-25T07:40:13;98801.53;;;7.92;100.00
18795;BME280;29610;49.022;12.114;2024-01-25T07:42:42;98804.81;;;7.89;100.00
18795;BME280;29610;49.022;12.114;2024-01-25T07:45:11;98806.06;;;8.11;100.00
18795;BME280;29610;49.022;12.114;2024-01-25T07:47:42;98805.50;;;8.09;100.00
18795;BME280;29610;49.022;12.114;2024-01-25T07:50:12;98813.06;;;8.17;100.00
18795;BME280;29610;49.022;12.114;2024-01-25T07:52:40;98811.44;;;8.16;100.00
18795;BME280;29610;49.022;12.114;2024-01-25T07:55:08;98817.13;;;8.20;100.00
18795;BME280;29610;49.022;12.114;2024-01-25T07:57:36;98826.69;;;8.02;100.00
18795;BME280;29610;49.022;12.114;2024-01-25T08:00:07;98826.34;;;8.14;100.00
18795;BME280;29610;49.022;12.114;2024-01-25T08:02:36;98834.69;;;8.22;100.00
18795;BME280;29610;49.022;12.114;2024-01-25T08:05:07;98835.25;;;8.29;100.00
18795;BME280;29610;49.022;12.114;2024-01-25T08:07:36;98833.28;;;8.40;100.00
18795;BME280;29610;49.022;12.114;2024-01-25T08:10:06;98840.53;;;8.54;100.00
18795;BME280;29610;49.022;12.114;2024-01-25T08:12:34;98846.75;;;8.55;100.00
18795;BME280;29610;49.022;12.114;2024-01-25T08:15:06;98846.94;;;8.68;100.00
18795;BME280;29610;49.022;12.114;2024-01-25T08:17:35;98859.53;;;8.88;100.00
18795;BME280;29610;49.022;12.114;2024-01-25T08:20:07;98862.16;;;8.64;100.00
18795;BME280;29610;49.022;12.114;2024-01-25T08:22:36;98862.06;;;8.74;100.00
18795;BME280;29610;49.022;12.114;2024-01-25T08:25:06;98863.56;;;8.90;100.00
18795;BME280;29610;49.022;12.114;2024-01-25T08:27:34;98865.38;;;9.05;100.00
18795;BME280;29610;49.022;12.114;2024-01-25T08:30:04;98873.78;;;9.04;100.00
18795;BME280;29610;49.022;12.114;2024-01-25T08:32:32;98885.03;;;9.21;100.00
18795;BME280;29610;49.022;12.114;2024-01-25T08:35:00;98886.94;;;9.25;100.00
18795;BME280;29610;49.022;12.114;2024-01-25T08:37:30;98887.38;;;8.99;100.00
18795;BME280;29610;49.022;12.114;2024-01-25T08:39:59;98889.22;;;9.08;100.00
18795;BME280;29610;49.022;12.114;2024-01-25T08:42:28;98882.31;;;9.21;100.00
18795;BME280;29610;49.022;12.114;2024-01-25T08:44:56;98876.47;;;9.42;100.00
18795;BME280;29610;49.022;12.114;2024-01-25T08:47:24;98872.94;;;9.42;100.00
18795;BME280;29610;49.022;12.114;2024-01-25T08:49:53;98881.66;;;9.00;100.00
18795;BME280;29610;49.022;12.114;2024-01-25T08:52:21;98878.91;;;9.10;100.00
18795;BME280;29610;49.022;12.114;2024-01-25T08:54:52;98870.97;;;9.19;100.00
18795;BME280;29610;49.022;12.114;2024-01-25T08:57:21;98878.50;;;9.27;100.00
18795;BME280;29610;49.022;12.114;2024-01-25T08:59:49;98877.97;;;9.25;100.00
18795;BME280;29610;49.022;12.114;2024-01-25T09:02:17;98877.41;;;9.28;100.00
18795;BME280;29610;49.022;12.114;2024-01-25T09:04:46;98875.00;;;9.21;100.00
18795;BME280;29610;49.022;12.114;2024-01-25T09:07:14;98884.63;;;9.37;100.00
18795;BME280;29610;49.022;12.114;2024-01-25T09:09:42;98883.06;;;9.31;100.00
18795;BME280;29610;49.022;12.114;2024-01-25T09:12:12;98898.69;;;9.44;100.00
18795;BME280;29610;49.022;12.114;2024-01-25T09:14:41;98900.34;;;9.40;100.00
18795;BME280;29610;49.022;12.114;2024-01-25T09:17:09;98897.91;;;9.39;100.00
18795;BME280;29610;49.022;12.114;2024-01-25T09:19:37;98905.16;;;9.77;100.00
18795;BME280;29610;49.022;12.114;2024-01-25T09:22:07;98904.59;;;9.80;100.00
18795;BME280;29610;49.022;12.114;2024-01-25T09:24:36;98898.38;;;9.79;100.00
18795;BME280;29610;49.022;12.114;2024-01-25T09:27:07;98910.34;;;9.73;100.00
18795;BME280;29610;49.022;12.114;2024-01-25T09:29:36;98906.84;;;9.73;100.00
18795;BME280;29610;49.022;12.114;2024-01-25T09:32:07;98908.31;;;9.89;100.00
18795;BME280;29610;49.022;12.114;2024-01-25T09:34:37;98916.75;;;9.87;100.00
18795;BME280;29610;49.022;12.114;2024-01-25T09:37:07;98919.53;;;10.06;100.00
18795;BME280;29610;49.022;12.114;2024-01-25T09:39:36;98915.81;;;10.25;100.00
18795;BME280;29610;49.022;12.114;2024-01-25T09:42:05;98922.53;;;10.04;100.00
18795;BME280;29610;49.022;12.114;2024-01-25T09:44:35;98927.22;;;9.70;100.00
18795;BME280;29610;49.022;12.114;2024-01-25T09:47:05;98925.97;;;9.58;100.00
18795;BME280;29610;49.022;12.114;2024-01-25T09:49:34;98932.34;;;9.72;100.00
18795;BME280;29610;49.022;12.114;2024-01-25T09:52:04;98934.69;;;9.83;100.00
18795;BME280;29610;49.022;12.114;2024-01-25T09:54:35;98937.97;;;9.80;100.00
18795;BME280;29610;49.022;12.114;2024-01-25T09:57:15;98939.81;;;9.56;100.00
18795;BME280;29610;49.022;12.114;2024-01-25T09:59:46;98941.22;;;9.54;100.00
18795;BME280;29610;49.022;12.114;2024-01-25T10:02:14;98943.59;;;9.60;100.00
18795;BME280;29610;49.022;12.114;2024-01-25T10:04:49;98943.34;;;9.57;100.00
18795;BME280;29610;49.022;12.114;2024-01-25T10:07:40;98945.63;;;9.73;100.00
18795;BME280;29610;49.022;12.114;2024-01-25T10:10:12;98947.41;;;9.88;100.00
18795;BME280;29610;49.022;12.114;2024-01-25T10:12:42;98944.41;;;9.61;100.00
18795;BME280;29610;49.022;12.114;2024-01-25T10:15:12;98939.56;;;9.53;100.00
18795;BME280;29610;49.022;12.114;2024-01-25T10:17:40;98932.13;;;9.40;100.00
18795;BME280;29610;49.022;12.114;2024-01-25T10:20:14;98943.03;;;9.63;100.00
18795;BME280;29610;49.022;12.114;2024-01-25T10:22:43;98938.75;;;9.86;100.00
18795;BME280;29610;49.022;12.114;2024-01-25T10:25:13;98941.16;;;9.92;100.00
18795;BME280;29610;49.022;12.114;2024-01-25T10:27:43;98937.13;;;10.13;100.00
18795;BME280;29610;49.022;12.114;2024-01-25T10:30:14;98938.53;;;10.11;100.00
18795;BME280;29610;49.022;12.114;2024-01-25T10:32:44;98937.31;;;10.22;100.00
18795;BME280;29610;49.022;12.114;2024-01-25T10:35:15;98928.19;;;10.13;100.00
18795;BME280;29610;49.022;12.114;2024-01-25T10:37:48;98929.56;;;10.05;100.00
18795;BME280;29610;49.022;12.114;2024-01-25T10:40:19;98928.94;;;9.90;100.00
18795;BME280;29610;49.022;12.114;2024-01-25T10:42:48;98921.47;;;10.00;100.00
18795;BME280;29610;49.022;12.114;2024-01-25T10:45:19;98915.41;;;10.13;100.00
18795;BME280;29610;49.022;12.114;2024-01-25T10:47:49;98922.91;;;10.21;100.00
18795;BME280;29610;49.022;12.114;2024-01-25T10:50:17;98921.59;;;9.90;100.00
18795;BME280;29610;49.022;12.114;2024-01-25T10:52:47;98928.59;;;9.96;100.00
18795;BME280;29610;49.022;12.114;2024-01-25T10:55:17;98920.16;;;9.98;100.00
18795;BME280;29610;49.022;12.114;2024-01-25T10:57:46;98915.13;;;10.39;100.00
18795;BME280;29610;49.022;12.114;2024-01-25T11:00:16;98913.72;;;10.41;100.00
18795;BME280;29610;49.022;12.114;2024-01-25T11:02:46;98914.47;;;10.23;100.00
18795;BME280;29610;49.022;12.114;2024-01-25T11:05:17;98912.81;;;10.27;100.00
18795;BME280;29610;49.022;12.114;2024-01-25T11:07:49;98915.00;;;10.25;100.00
18795;BME280;29610;49.022;12.114;2024-01-25T11:10:19;98910.66;;;10.48;100.00
18795;BME280;29610;49.022;12.114;2024-01-25T11:12:55;98920.63;;;10.33;100.00
18795;BME280;29610;49.022;12.114;2024-01-25T11:15:30;98913.44;;;10.61;100.00
18795;BME280;29610;49.022;12.114;2024-01-25T11:18:02;98903.69;;;10.79;100.00
18795;BME280;29610;49.022;12.114;2024-01-25T11:20:31;98918.53;;;10.68;100.00
18795;BME280;29610;49.022;12.114;2024-01-25T11:23:03;98907.72;;;10.63;100.00
18795;BME280;29610;49.022;12.114;2024-01-25T11:25:34;98914.38;;;10.75;100.00
18795;BME280;29610;49.022;12.114;2024-01-25T11:28:05;98908.91;;;11.12;100.00
18795;BME280;29610;49.022;12.114;2024-01-25T11:30:35;98913.09;;;11.42;100.00
18795;BME280;29610;49.022;12.114;2024-01-25T11:33:07;98911.19;;;11.24;100.00
18795;BME280;29610;49.022;12.114;2024-01-25T11:35:36;98900.41;;;10.82;100.00
18795;BME280;29610;49.022;12.114;2024-01-25T11:38:05;98904.81;;;10.96;100.00
18795;BME280;29610;49.022;12.114;2024-01-25T11:40:33;98896.22;;;10.89;100.00
18795;BME280;29610;49.022;12.114;2024-01-25T11:43:05;98903.94;;;11.01;100.00
18795;BME280;29610;49.022;12.114;2024-01-25T11:45:38;98905.84;;;11.00;100.00
18795;BME280;29610;49.022;12.114;2024-01-25T11:48:12;98906.88;;;10.67;100.00
18795;BME280;29610;49.022;12.114;2024-01-25T11:50:40;98909.06;;;10.65;100.00
18795;BME280;29610;49.022;12.114;2024-01-25T11:53:09;98922.06;;;10.68;100.00
18795;BME280;29610;49.022;12.114;2024-01-25T11:55:37;98910.13;;;10.88;100.00
18795;BME280;29610;49.022;12.114;2024-01-25T11:58:06;98909.22;;;10.74;100.00
18795;BME280;29610;49.022;12.114;2024-01-25T12:00:34;98900.91;;;10.65;100.00
18795;BME280;29610;49.022;12.114;2024-01-25T12:03:04;98911.03;;;10.60;100.00
18795;BME280;29610;49.022;12.114;2024-01-25T12:05:34;98914.09;;;10.53;100.00
18795;BME280;29610;49.022;12.114;2024-01-25T12:08:09;98898.53;;;10.40;100.00
18795;BME280;29610;49.022;12.114;2024-01-25T12:10:37;98908.00;;;10.43;100.00
18795;BME280;29610;49.022;12.114;2024-01-25T12:13:07;98908.47;;;10.50;100.00
18795;BME280;29610;49.022;12.114;2024-01-25T12:15:36;98894.81;;;10.55;100.00
18795;BME280;29610;49.022;12.114;2024-01-25T12:18:06;98894.47;;;10.38;100.00
18795;BME280;29610;49.022;12.114;2024-01-25T12:20:37;98893.00;;;10.45;100.00
18795;BME280;29610;49.022;12.114;2024-01-25T12:23:08;98902.16;;;10.54;100.00
18795;BME280;29610;49.022;12.114;2024-01-25T12:25:39;98885.13;;;10.67;100.00
18795;BME280;29610;49.022;12.114;2024-01-25T12:28:10;98885.06;;;10.72;100.00
18795;BME280;29610;49.022;12.114;2024-01-25T12:30:38;98892.16;;;10.68;100.00
18795;BME280;29610;49.022;12.114;2024-01-25T12:33:07;98882.69;;;10.66;100.00
18795;BME280;29610;49.022;12.114;2024-01-25T12:35:36;98877.44;;;10.69;100.00
18795;BME280;29610;49.022;12.114;2024-01-25T12:38:07;98873.25;;;10.58;100.00
18795;BME280;29610;49.022;12.114;2024-01-25T12:40:36;98871.34;;;10.77;100.00
18795;BME280;29610;49.022;12.114;2024-01-25T12:43:05;98867.25;;;10.80;100.00
18795;BME280;29610;49.022;12.114;2024-01-25T12:45:33;98878.19;;;10.75;100.00
18795;BME280;29610;49.022;12.114;2024-01-25T12:48:01;98869.88;;;10.66;100.00
18795;BME280;29610;49.022;12.114;2024-01-25T12:50:31;98870.22;;;10.83;100.00
18795;BME280;29610;49.022;12.114;2024-01-25T12:53:03;98870.41;;;10.87;100.00
18795;BME280;29610;49.022;12.114;2024-01-25T12:55:32;98860.72;;;10.62;100.00
18795;BME280;29610;49.022;12.114;2024-01-25T12:58:02;98869.88;;;10.48;100.00